sensor_id;sensor_type;location;lat;lon;timestamp;P1;durP1;ratioP1;P2;durP2;ratioP2
12232;SDS011;6179;51.748;8.728;2022-11-21T00:01:34;6.77;;;3.00;;
12232;SDS011;6179;51.748;8.728;2022-11-21T00:07:35;10.73;;;5.00;;
12232;SDS011;6179;51.748;8.728;2022-11-21T00:13:35;5.60;;;3.30;;
12232;SDS011;6179;51.748;8.728;2022-11-21T00:19:36;10.63;;;4.20;;
12232;SDS011;6179;51.748;8.728;2022-11-21T00:25:37;7.50;;;3.07;;
12232;SDS011;6179;51.748;8.728;2022-11-21T00:31:38;6.10;;;3.23;;
12232;SDS011;6179;51.748;8.728;2022-11-21T00:37:39;17.53;;;6.63;;
12232;SDS011;6179;51.748;8.728;2022-11-21T00:43:40;7.10;;;5.07;;
12232;SDS011;6179;51.748;8.728;2022-11-21T00:49:40;16.07;;;5.63;;
12232;SDS011;6179;51.748;8.728;2022-11-21T00:55:41;10.03;;;4.97;;
12232;SDS011;6179;51.748;8.728;2022-11-21T01:01:42;9.23;;;4.17;;
12232;SDS011;6179;51.748;8.728;2022-11-21T01:07:43;8.53;;;4.67;;
12232;SDS011;6179;51.748;8.728;2022-11-21T01:13:44;10.00;;;4.87;;
12232;SDS011;6179;51.748;8.728;2022-11-21T01:19:45;14.73;;;4.20;;
12232;SDS011;6179;51.748;8.728;2022-11-21T01:25:46;10.33;;;4.93;;
12232;SDS011;6179;51.748;8.728;2022-11-21T01:31:47;11.03;;;5.90;;
12232;SDS011;6179;51.748;8.728;2022-11-21T01:37:48;14.67;;;4.30;;
12232;SDS011;6179;51.748;8.728;2022-11-21T01:43:49;5.13;;;2.80;;
12232;SDS011;6179;51.748;8.728;2022-11-21T01:49:50;11.67;;;4.33;;
12232;SDS011;6179;51.748;8.728;2022-11-21T01:55:52;4.93;;;3.33;;
12232;SDS011;6179;51.748;8.728;2022-11-21T02:01:53;10.33;;;4.60;;
12232;SDS011;6179;51.748;8.728;2022-11-21T02:08:00;11.43;;;6.70;;
12232;SDS011;6179;51.748;8.728;2022-11-21T02:14:08;11.70;;;5.73;;
12232;SDS011;6179;51.748;8.728;2022-11-21T02:20:11;10.33;;;4.20;;
12232;SDS011;6179;51.748;8.728;2022-11-21T02:26:16;15.17;;;3.53;;
12232;SDS011;6179;51.748;8.728;2022-11-21T02:32:21;8.67;;;5.47;;
12232;SDS011;6179;51.748;8.728;2022-11-21T02:38:31;9.03;;;4.63;;
12232;SDS011;6179;51.748;8.728;2022-11-21T02:44:38;11.70;;;6.07;;
12232;SDS011;6179;51.748;8.728;2022-11-21T02:50:55;9.77;;;5.37;;
12232;SDS011;6179;51.748;8.728;2022-11-21T02:56:55;9.87;;;5.57;;
12232;SDS011;6179;51.748;8.728;2022-11-21T03:02:56;7.27;;;4.57;;
12232;SDS011;6179;51.748;8.728;2022-11-21T03:08:57;8.97;;;4.77;;
12232;SDS011;6179;51.748;8.728;2022-11-21T03:14:58;19.37;;;5.40;;
12232;SDS011;6179;51.748;8.728;2022-11-21T03:20:58;9.70;;;5.50;;
12232;SDS011;6179;51.748;8.728;2022-11-21T03:26:59;10.63;;;5.80;;
12232;SDS011;6179;51.748;8.728;2022-11-21T03:33:00;16.23;;;6.97;;
12232;SDS011;6179;51.748;8.728;2022-11-21T03:39:01;13.80;;;6.40;;
12232;SDS011;6179;51.748;8.728;2022-11-21T03:45:03;9.53;;;5.23;;
12232;SDS011;6179;51.748;8.728;2022-11-21T03:51:04;12.17;;;6.13;;
12232;SDS011;6179;51.748;8.728;2022-11-21T03:57:05;7.83;;;5.30;;
12232;SDS011;6179;51.748;8.728;2022-11-21T04:03:06;12.50;;;6.03;;
12232;SDS011;6179;51.748;8.728;2022-11-21T04:09:06;12.67;;;7.20;;
12232;SDS011;6179;51.748;8.728;2022-11-21T04:15:07;10.47;;;4.30;;
12232;SDS011;6179;51.748;8.728;2022-11-21T04:21:09;16.13;;;9.10;;
12232;SDS011;6179;51.748;8.728;2022-11-21T04:27:10;17.90;;;7.30;;
12232;SDS011;6179;51.748;8.728;2022-11-21T04:33:12;17.27;;;7.77;;
12232;SDS011;6179;51.748;8.728;2022-11-21T04:39:14;16.40;;;8.10;;
12232;SDS011;6179;51.748;8.728;2022-11-21T04:45:15;13.70;;;6.43;;
12232;SDS011;6179;51.748;8.728;2022-11-21T04:51:16;13.13;;;7.53;;
12232;SDS011;6179;51.748;8.728;2022-11-21T04:57:17;18.70;;;9.33;;
12232;SDS011;6179;51.748;8.728;2022-11-21T05:03:18;15.93;;;7.40;;
12232;SDS011;6179;51.748;8.728;2022-11-21T05:09:19;23.77;;;9.63;;
12232;SDS011;6179;51.748;8.728;2022-11-21T05:15:19;13.93;;;8.87;;
12232;SDS011;6179;51.748;8.728;2022-11-21T05:21:20;26.07;;;9.67;;
12232;SDS011;6179;51.748;8.728;2022-11-21T05:27:21;16.23;;;7.70;;
12232;SDS011;6179;51.748;8.728;2022-11-21T05:33:22;27.93;;;9.67;;
12232;SDS011;6179;51.748;8.728;2022-11-21T05:39:23;29.73;;;11.20;;
12232;SDS011;6179;51.748;8.728;2022-11-21T05:45:24;20.80;;;9.10;;
12232;SDS011;6179;51.748;8.728;2022-11-21T05:51:25;23.67;;;11.13;;
12232;SDS011;6179;51.748;8.728;2022-11-21T05:57:29;19.10;;;8.10;;
12232;SDS011;6179;51.748;8.728;2022-11-21T06:03:31;25.83;;;8.80;;
12232;SDS011;6179;51.748;8.728;2022-11-21T06:09:34;24.33;;;11.60;;
12232;SDS011;6179;51.748;8.728;2022-11-21T06:15:35;23.57;;;10.50;;
12232;SDS011;6179;51.748;8.728;2022-11-21T06:21:36;36.80;;;13.00;;
12232;SDS011;6179;51.748;8.728;2022-11-21T06:27:37;22.00;;;8.93;;
12232;SDS011;6179;51.748;8.728;2022-11-21T06:33:38;22.00;;;9.53;;
12232;SDS011;6179;51.748;8.728;2022-11-21T06:39:40;17.23;;;6.27;;
12232;SDS011;6179;51.748;8.728;2022-11-21T06:45:41;23.67;;;10.00;;
12232;SDS011;6179;51.748;8.728;2022-11-21T06:51:42;27.53;;;8.30;;
12232;SDS011;6179;51.748;8.728;2022-11-21T06:57:42;33.90;;;11.23;;
12232;SDS011;6179;51.748;8.728;2022-11-21T07:03:43;22.63;;;10.90;;
12232;SDS011;6179;51.748;8.728;2022-11-21T07:09:44;25.10;;;9.10;;
12232;SDS011;6179;51.748;8.728;2022-11-21T07:15:46;21.30;;;8.90;;
12232;SDS011;6179;51.748;8.728;2022-11-21T07:21:50;18.67;;;8.70;;
12232;SDS011;6179;51.748;8.728;2022-11-21T07:27:51;18.43;;;10.77;;
12232;SDS011;6179;51.748;8.728;2022-11-21T07:33:52;17.53;;;7.70;;
12232;SDS011;6179;51.748;8.728;2022-11-21T07:39:52;33.80;;;10.63;;
12232;SDS011;6179;51.748;8.728;2022-11-21T07:45:54;26.30;;;11.53;;
12232;SDS011;6179;51.748;8.728;2022-11-21T07:51:55;19.80;;;10.43;;
12232;SDS011;6179;51.748;8.728;2022-11-21T07:57:58;29.50;;;11.30;;
12232;SDS011;6179;51.748;8.728;2022-11-21T08:04:00;18.37;;;6.80;;
12232;SDS011;6179;51.748;8.728;2022-11-21T08:10:01;22.63;;;10.23;;
12232;SDS011;6179;51.748;8.728;2022-11-21T08:16:02;27.33;;;8.97;;
12232;SDS011;6179;51.748;8.728;2022-11-21T08:22:04;33.77;;;10.90;;
12232;SDS011;6179;51.748;8.728;2022-11-21T08:28:05;30.30;;;11.93;;
12232;SDS011;6179;51.748;8.728;2022-11-21T08:34:08;19.20;;;10.37;;
12232;SDS011;6179;51.748;8.728;2022-11-21T08:40:10;25.87;;;11.17;;
12232;SDS011;6179;51.748;8.728;2022-11-21T08:46:11;21.43;;;11.57;;
12232;SDS011;6179;51.748;8.728;2022-11-21T08:52:12;35.53;;;10.57;;
12232;SDS011;6179;51.748;8.728;2022-11-21T08:58:16;28.63;;;11.80;;
12232;SDS011;6179;51.748;8.728;2022-11-21T09:04:17;40.10;;;14.03;;
12232;SDS011;6179;51.748;8.728;2022-11-21T09:10:18;36.80;;;12.57;;
12232;SDS011;6179;51.748;8.728;2022-11-21T09:16:18;35.60;;;10.33;;
12232;SDS011;6179;51.748;8.728;2022-11-21T09:22:38;28.13;;;10.97;;
12232;SDS011;6179;51.748;8.728;2022-11-21T09:28:39;32.03;;;13.70;;
12232;SDS011;6179;51.748;8.728;2022-11-21T09:34:40;32.07;;;11.70;;
12232;SDS011;6179;51.748;8.728;2022-11-21T09:40:42;34.07;;;11.60;;
12232;SDS011;6179;51.748;8.728;2022-11-21T09:46:46;33.93;;;9.03;;
12232;SDS011;6179;51.748;8.728;2022-11-21T09:53:01;23.50;;;11.27;;
12232;SDS011;6179;51.748;8.728;2022-11-21T10:05:45;26.90;;;12.03;;
12232;SDS011;6179;51.748;8.728;2022-11-21T10:25:02;11.33;;;5.53;;
12232;SDS011;6179;51.748;8.728;2022-11-21T10:31:14;18.93;;;8.23;;
12232;SDS011;6179;51.748;8.728;2022-11-21T10:37:23;17.23;;;8.13;;
12232;SDS011;6179;51.748;8.728;2022-11-21T10:43:41;18.87;;;6.97;;
12232;SDS011;6179;51.748;8.728;2022-11-21T10:57:11;23.10;;;8.40;;
12232;SDS011;6179;51.748;8.728;2022-11-21T11:03:18;11.50;;;5.07;;
12232;SDS011;6179;51.748;8.728;2022-11-21T11:09:27;16.10;;;6.27;;
12232;SDS011;6179;51.748;8.728;2022-11-21T11:15:31;8.43;;;4.17;;
12232;SDS011;6179;51.748;8.728;2022-11-21T11:27:39;10.60;;;5.40;;
12232;SDS011;6179;51.748;8.728;2022-11-21T11:33:48;10.10;;;4.50;;
12232;SDS011;6179;51.748;8.728;2022-11-21T11:40:06;9.73;;;2.97;;
12232;SDS011;6179;51.748;8.728;2022-11-21T11:53:19;13.67;;;5.60;;
12232;SDS011;6179;51.748;8.728;2022-11-21T11:59:38;7.87;;;3.27;;
12232;SDS011;6179;51.748;8.728;2022-11-21T12:05:53;15.10;;;5.53;;
12232;SDS011;6179;51.748;8.728;2022-11-21T12:12:15;14.13;;;5.00;;
12232;SDS011;6179;51.748;8.728;2022-11-21T12:18:39;21.53;;;5.10;;
12232;SDS011;6179;51.748;8.728;2022-11-21T12:24:57;10.63;;;5.43;;
12232;SDS011;6179;51.748;8.728;2022-11-21T12:44:01;13.03;;;6.90;;
12232;SDS011;6179;51.748;8.728;2022-11-21T12:50:24;10.57;;;4.90;;
12232;SDS011;6179;51.748;8.728;2022-11-21T12:57:08;14.30;;;6.67;;
12232;SDS011;6179;51.748;8.728;2022-11-21T13:09:58;16.60;;;7.93;;
12232;SDS011;6179;51.748;8.728;2022-11-21T13:16:05;13.20;;;5.73;;
12232;SDS011;6179;51.748;8.728;2022-11-21T13:28:36;11.03;;;6.97;;
12232;SDS011;6179;51.748;8.728;2022-11-21T13:34:37;14.23;;;6.80;;
12232;SDS011;6179;51.748;8.728;2022-11-21T13:40:38;21.07;;;7.97;;
12232;SDS011;6179;51.748;8.728;2022-11-21T14:06:32;8.97;;;5.87;;
12232;SDS011;6179;51.748;8.728;2022-11-21T14:12:38;16.03;;;6.80;;
12232;SDS011;6179;51.748;8.728;2022-11-21T14:18:41;12.13;;;6.50;;
12232;SDS011;6179;51.748;8.728;2022-11-21T14:24:45;14.30;;;6.70;;
12232;SDS011;6179;51.748;8.728;2022-11-21T14:30:46;13.67;;;6.83;;
12232;SDS011;6179;51.748;8.728;2022-11-21T14:36:47;12.23;;;5.20;;
12232;SDS011;6179;51.748;8.728;2022-11-21T14:42:48;10.53;;;4.13;;
12232;SDS011;6179;51.748;8.728;2022-11-21T14:48:49;10.70;;;3.40;;
12232;SDS011;6179;51.748;8.728;2022-11-21T14:55:02;18.40;;;7.80;;
12232;SDS011;6179;51.748;8.728;2022-11-21T15:01:06;15.13;;;6.00;;
12232;SDS011;6179;51.748;8.728;2022-11-21T15:07:24;7.50;;;5.20;;
12232;SDS011;6179;51.748;8.728;2022-11-21T15:13:28;10.07;;;5.33;;
12232;SDS011;6179;51.748;8.728;2022-11-21T15:19:35;10.03;;;5.20;;
12232;SDS011;6179;51.748;8.728;2022-11-21T15:25:45;15.23;;;6.23;;
12232;SDS011;6179;51.748;8.728;2022-11-21T15:44:59;14.30;;;6.90;;
12232;SDS011;6179;51.748;8.728;2022-11-21T15:51:01;9.80;;;4.73;;
12232;SDS011;6179;51.748;8.728;2022-11-21T15:57:01;12.57;;;5.77;;
12232;SDS011;6179;51.748;8.728;2022-11-21T16:03:02;10.90;;;5.53;;
12232;SDS011;6179;51.748;8.728;2022-11-21T16:09:03;9.30;;;5.10;;
12232;SDS011;6179;51.748;8.728;2022-11-21T16:15:04;18.73;;;7.13;;
12232;SDS011;6179;51.748;8.728;2022-11-21T16:21:06;11.30;;;6.10;;
12232;SDS011;6179;51.748;8.728;2022-11-21T16:27:09;8.57;;;5.47;;
12232;SDS011;6179;51.748;8.728;2022-11-21T16:33:10;8.90;;;3.67;;
12232;SDS011;6179;51.748;8.728;2022-11-21T16:39:11;11.40;;;6.80;;
12232;SDS011;6179;51.748;8.728;2022-11-21T16:45:12;10.37;;;4.93;;
12232;SDS011;6179;51.748;8.728;2022-11-21T16:51:14;11.53;;;7.50;;
12232;SDS011;6179;51.748;8.728;2022-11-21T16:57:17;11.60;;;7.30;;
12232;SDS011;6179;51.748;8.728;2022-11-21T17:03:18;11.47;;;6.53;;
12232;SDS011;6179;51.748;8.728;2022-11-21T17:09:18;18.83;;;6.73;;
12232;SDS011;6179;51.748;8.728;2022-11-21T17:15:19;13.10;;;6.20;;
12232;SDS011;6179;51.748;8.728;2022-11-21T17:21:20;16.60;;;7.77;;
12232;SDS011;6179;51.748;8.728;2022-11-21T17:27:22;14.70;;;6.80;;
12232;SDS011;6179;51.748;8.728;2022-11-21T17:33:23;8.40;;;5.13;;
12232;SDS011;6179;51.748;8.728;2022-11-21T17:39:25;12.17;;;6.90;;
12232;SDS011;6179;51.748;8.728;2022-11-21T17:45:26;12.77;;;6.60;;
12232;SDS011;6179;51.748;8.728;2022-11-21T17:51:28;16.93;;;6.57;;
12232;SDS011;6179;51.748;8.728;2022-11-21T17:57:33;14.57;;;7.23;;
12232;SDS011;6179;51.748;8.728;2022-11-21T18:03:33;12.13;;;8.07;;
12232;SDS011;6179;51.748;8.728;2022-11-21T18:09:36;18.40;;;7.33;;
12232;SDS011;6179;51.748;8.728;2022-11-21T18:15:36;19.80;;;9.30;;
12232;SDS011;6179;51.748;8.728;2022-11-21T18:21:37;23.70;;;9.67;;
12232;SDS011;6179;51.748;8.728;2022-11-21T18:27:38;23.33;;;8.67;;
12232;SDS011;6179;51.748;8.728;2022-11-21T18:33:39;13.73;;;7.77;;
12232;SDS011;6179;51.748;8.728;2022-11-21T18:39:41;16.40;;;7.70;;
12232;SDS011;6179;51.748;8.728;2022-11-21T18:45:42;20.47;;;10.30;;
12232;SDS011;6179;51.748;8.728;2022-11-21T18:51:43;36.23;;;13.03;;
12232;SDS011;6179;51.748;8.728;2022-11-21T18:57:43;12.67;;;7.00;;
12232;SDS011;6179;51.748;8.728;2022-11-21T19:03:44;18.70;;;6.90;;
12232;SDS011;6179;51.748;8.728;2022-11-21T19:09:46;15.37;;;7.27;;
12232;SDS011;6179;51.748;8.728;2022-11-21T19:15:47;10.17;;;5.50;;
12232;SDS011;6179;51.748;8.728;2022-11-21T19:21:48;13.10;;;5.30;;
12232;SDS011;6179;51.748;8.728;2022-11-21T19:27:48;8.27;;;4.77;;
12232;SDS011;6179;51.748;8.728;2022-11-21T19:33:49;7.00;;;4.00;;
12232;SDS011;6179;51.748;8.728;2022-11-21T19:39:50;20.03;;;6.47;;
12232;SDS011;6179;51.748;8.728;2022-11-21T19:45:51;11.73;;;5.60;;
12232;SDS011;6179;51.748;8.728;2022-11-21T19:51:51;9.87;;;4.67;;
12232;SDS011;6179;51.748;8.728;2022-11-21T19:57:52;18.23;;;8.03;;
12232;SDS011;6179;51.748;8.728;2022-11-21T20:03:54;9.97;;;5.50;;
12232;SDS011;6179;51.748;8.728;2022-11-21T20:09:58;10.60;;;5.60;;
12232;SDS011;6179;51.748;8.728;2022-11-21T20:15:58;7.27;;;4.93;;
12232;SDS011;6179;51.748;8.728;2022-11-21T20:21:59;18.73;;;6.33;;
12232;SDS011;6179;51.748;8.728;2022-11-21T20:28:00;7.10;;;4.70;;
12232;SDS011;6179;51.748;8.728;2022-11-21T20:34:02;8.93;;;5.57;;
12232;SDS011;6179;51.748;8.728;2022-11-21T20:40:07;8.97;;;4.53;;
12232;SDS011;6179;51.748;8.728;2022-11-21T20:46:08;11.70;;;8.13;;
12232;SDS011;6179;51.748;8.728;2022-11-21T20:52:09;8.33;;;4.93;;
12232;SDS011;6179;51.748;8.728;2022-11-21T20:58:09;8.27;;;5.17;;
12232;SDS011;6179;51.748;8.728;2022-11-21T21:04:10;11.03;;;4.63;;
12232;SDS011;6179;51.748;8.728;2022-11-21T21:10:11;8.07;;;4.53;;
12232;SDS011;6179;51.748;8.728;2022-11-21T21:16:13;9.97;;;6.07;;
12232;SDS011;6179;51.748;8.728;2022-11-21T21:22:28;13.50;;;6.77;;
12232;SDS011;6179;51.748;8.728;2022-11-21T21:28:29;9.50;;;4.93;;
12232;SDS011;6179;51.748;8.728;2022-11-21T21:34:30;9.87;;;5.70;;
12232;SDS011;6179;51.748;8.728;2022-11-21T21:40:31;20.97;;;5.53;;
12232;SDS011;6179;51.748;8.728;2022-11-21T21:46:32;6.90;;;4.50;;
12232;SDS011;6179;51.748;8.728;2022-11-21T21:52:32;23.50;;;7.50;;
12232;SDS011;6179;51.748;8.728;2022-11-21T21:58:35;15.53;;;4.30;;
12232;SDS011;6179;51.748;8.728;2022-11-21T22:04:38;18.73;;;4.97;;
12232;SDS011;6179;51.748;8.728;2022-11-21T22:10:39;14.83;;;6.43;;
12232;SDS011;6179;51.748;8.728;2022-11-21T22:16:40;9.83;;;4.10;;
12232;SDS011;6179;51.748;8.728;2022-11-21T22:22:42;9.80;;;5.87;;
12232;SDS011;6179;51.748;8.728;2022-11-21T22:28:43;7.63;;;4.47;;
12232;SDS011;6179;51.748;8.728;2022-11-21T22:34:44;7.63;;;5.10;;
12232;SDS011;6179;51.748;8.728;2022-11-21T22:40:44;6.90;;;5.10;;
12232;SDS011;6179;51.748;8.728;2022-11-21T22:46:45;16.53;;;3.80;;
12232;SDS011;6179;51.748;8.728;2022-11-21T22:52:46;4.77;;;3.07;;
12232;SDS011;6179;51.748;8.728;2022-11-21T22:58:47;3.53;;;3.17;;
12232;SDS011;6179;51.748;8.728;2022-11-21T23:04:49;6.07;;;1.97;;
12232;SDS011;6179;51.748;8.728;2022-11-21T23:10:50;3.57;;;1.93;;
12232;SDS011;6179;51.748;8.728;2022-11-21T23:16:51;9.10;;;2.57;;
12232;SDS011;6179;51.748;8.728;2022-11-21T23:22:54;5.80;;;3.00;;
12232;SDS011;6179;51.748;8.728;2022-11-21T23:28:56;2.70;;;2.47;;
12232;SDS011;6179;51.748;8.728;2022-11-21T23:34:57;5.67;;;3.20;;
12232;SDS011;6179;51.748;8.728;2022-11-21T23:40:58;11.63;;;2.10;;
12232;SDS011;6179;51.748;8.728;2022-11-21T23:46:58;1.90;;;1.63;;
12232;SDS011;6179;51.748;8.728;2022-11-21T23:52:59;8.00;;;1.70;;
12232;SDS011;6179;51.748;8.728;2022-11-21T23:59:00;12.90;;;2.33;;
